Time;durP1;ratioP1;P1;durP2;ratioP2;P2;SDS_P1;SDS_P2;PMS_P1;PMS_P2;Temp;Humidity;BMP_temperature;BMP_pressure;BME280_temperature;BME280_humidity;BME280_pressure;Samples;Min_cycle;Max_cycle;Signal;HPM_P1;HPM_P2
2022/10/08 00:01:11;;;;;;;5.55;1.30;;;21.80;44.90;;;;;;5051335;28;20025;-49
2022/10/08 00:03:40;;;;;;;2.55;0.88;;;21.80;44.90;;;;;;5050908;28;20029;-47
2022/10/08 00:06:27;;;;;;;2.83;1.08;;;21.80;45.00;;;;;;5047181;28;20113;-48
2022/10/08 00:08:58;;;;;;;4.55;1.20;;;21.80;45.00;;;;;;5049773;28;20051;-50
2022/10/08 00:11:30;;;;;;;3.13;1.10;;;21.80;45.00;;;;;;5050136;28;20033;-45
2022/10/08 00:13:56;;;;;;;3.00;1.00;;;21.80;45.00;;;;;;5050116;28;20091;-51
2022/10/08 00:16:22;;;;;;;3.05;1.35;;;21.70;45.00;;;;;;5051392;28;20036;-50
2022/10/08 00:18:50;;;;;;;3.72;1.35;;;21.70;45.00;;;;;;5053701;28;20035;-47
2022/10/08 00:21:26;;;;;;;3.55;1.10;;;21.70;45.00;;;;;;5051099;28;20032;-52
2022/10/08 00:23:53;;;;;;;1.98;0.90;;;21.80;45.10;;;;;;5052512;28;20052;-50
2022/10/08 00:26:23;;;;;;;2.78;1.02;;;21.70;45.00;;;;;;5050741;28;20033;-49
2022/10/08 00:28:49;;;;;;;3.10;1.27;;;21.70;45.10;;;;;;5051361;28;20048;-47
2022/10/08 00:31:19;;;;;;;4.32;1.30;;;21.70;45.10;;;;;;5052702;28;20037;-49
2022/10/08 00:33:48;;;;;;;3.53;1.48;;;21.70;45.20;;;;;;5052140;28;20021;-46
2022/10/08 00:36:14;;;;;;;3.55;1.30;;;21.70;45.20;;;;;;5049775;28;20039;-47
2022/10/08 00:38:40;;;;;;;4.35;1.58;;;21.70;45.20;;;;;;5050399;28;20033;-51
2022/10/08 00:41:15;;;;;;;2.97;1.52;;;21.70;45.30;;;;;;5051369;28;20068;-51
2022/10/08 00:43:50;;;;;;;4.05;1.38;;;21.70;45.30;;;;;;5052309;28;20064;-50
2022/10/08 00:46:25;;;;;;;2.85;1.40;;;21.70;45.30;;;;;;5050363;28;20069;-49
2022/10/08 00:49:13;;;;;;;2.80;1.20;;;21.70;45.30;;;;;;5051324;28;20041;-48
2022/10/08 00:51:48;;;;;;;2.90;1.00;;;21.70;45.40;;;;;;5050101;28;20028;-47
2022/10/08 00:54:16;;;;;;;3.85;1.55;;;21.70;45.40;;;;;;5050693;28;20394;-45
2022/10/08 00:56:43;;;;;;;3.15;1.25;;;21.70;45.50;;;;;;5048774;28;20454;-45
2022/10/08 00:59:11;;;;;;;4.65;1.10;;;21.70;45.60;;;;;;5051449;28;20037;-49
2022/10/08 01:01:40;;;;;;;3.58;1.20;;;21.70;45.70;;;;;;5050290;28;20021;-48
2022/10/08 01:04:07;;;;;;;2.92;1.38;;;21.70;45.70;;;;;;5050549;28;20471;-48
2022/10/08 01:06:53;;;;;;;2.85;1.30;;;21.70;45.70;;;;;;5050160;28;20073;-50
2022/10/08 01:09:48;;;;;;;2.47;1.20;;;21.70;45.80;;;;;;5051142;28;20383;-50
2022/10/08 01:12:14;;;;;;;3.30;1.10;;;21.70;45.80;;;;;;5023773;28;20056;-47
2022/10/08 01:14:58;;;;;;;4.43;1.55;;;21.70;45.90;;;;;;5050506;28;20025;-50
2022/10/08 01:18:16;;;;;;;2.28;1.10;;;21.70;46.00;;;;;;5050729;28;20112;-47
2022/10/08 01:21:10;;;;;;;3.08;1.20;;;21.70;46.00;;;;;;4982267;28;20038;-47
2022/10/08 01:24:22;;;;;;;2.38;1.00;;;21.60;46.00;;;;;;4983327;28;20047;-49
2022/10/08 01:26:59;;;;;;;4.13;1.45;;;21.60;46.10;;;;;;5049407;28;20372;-54
2022/10/08 01:29:40;;;;;;;2.85;1.10;;;21.60;46.20;;;;;;5048788;28;20079;-49
2022/10/08 01:32:14;;;;;;;2.63;1.20;;;21.60;46.30;;;;;;5049834;28;20024;-52
2022/10/08 01:34:46;;;;;;;2.15;1.08;;;21.60;46.40;;;;;;5053943;28;20065;-49
2022/10/08 01:37:44;;;;;;;3.53;1.25;;;21.60;46.50;;;;;;5049141;28;20037;-46
2022/10/08 01:40:19;;;;;;;3.38;1.10;;;21.60;46.60;;;;;;5047241;28;20040;-46
2022/10/08 01:42:49;;;;;;;3.47;1.10;;;21.60;46.60;;;;;;5050124;28;20411;-48
2022/10/08 01:45:21;;;;;;;3.05;1.25;;;21.60;46.60;;;;;;5048188;28;20403;-50
2022/10/08 01:47:50;;;;;;;3.05;1.10;;;21.60;46.60;;;;;;5047344;28;20041;-49
2022/10/08 01:50:49;;;;;;;2.78;1.15;;;21.60;46.60;;;;;;5049631;28;20041;-47
2022/10/08 01:53:18;;;;;;;3.60;1.20;;;21.60;46.80;;;;;;5031620;28;20037;-48
2022/10/08 01:55:48;;;;;;;2.75;1.02;;;21.60;46.90;;;;;;5049863;28;20112;-46
2022/10/08 01:58:18;;;;;;;2.78;1.00;;;21.60;47.50;;;;;;5050203;28;20021;-48
2022/10/08 02:00:45;;;;;;;2.83;1.08;;;21.60;47.00;;;;;;5050242;28;20043;-49
2022/10/08 02:03:11;;;;;;;2.00;1.00;;;21.60;47.00;;;;;;5050004;28;20360;-47
2022/10/08 02:05:42;;;;;;;2.70;1.17;;;21.60;47.10;;;;;;5046702;28;20017;-48
2022/10/08 02:08:09;;;;;;;1.70;1.00;;;21.60;47.10;;;;;;5047970;28;20474;-49
2022/10/08 02:10:35;;;;;;;2.55;1.05;;;21.60;47.20;;;;;;5049868;28;20055;-46
2022/10/08 02:13:02;;;;;;;2.97;1.10;;;21.60;47.20;;;;;;5049681;28;20392;-46
2022/10/08 02:15:43;;;;;;;7.93;1.52;;;21.60;47.30;;;;;;5049542;28;20040;-47
2022/10/08 02:18:20;;;;;;;2.10;0.85;;;21.60;47.40;;;;;;5046865;28;20476;-47
2022/10/08 02:20:49;;;;;;;1.88;0.80;;;21.60;47.40;;;;;;5051714;28;20039;-46
2022/10/08 02:23:24;;;;;;;2.40;0.93;;;21.60;47.50;;;;;;5052008;28;20051;-49
2022/10/08 02:25:56;;;;;;;3.38;1.20;;;21.60;47.50;;;;;;5046810;28;20037;-50
2022/10/08 02:28:45;;;;;;;2.60;1.20;;;21.60;47.60;;;;;;5049742;28;20123;-50
2022/10/08 02:31:24;;;;;;;1.88;0.90;;;21.60;47.60;;;;;;5047454;28;20032;-48
2022/10/08 02:33:53;;;;;;;3.55;1.17;;;21.60;47.70;;;;;;5047878;28;20043;-47
2022/10/08 02:36:25;;;;;;;1.98;0.90;;;21.60;47.70;;;;;;5047143;28;20025;-47
2022/10/08 02:38:54;;;;;;;2.70;0.98;;;21.60;47.80;;;;;;5049904;28;20040;-46
2022/10/08 02:41:27;;;;;;;2.38;0.73;;;21.60;47.80;;;;;;5047287;28;20021;-46
2022/10/08 02:43:56;;;;;;;2.75;0.95;;;21.60;47.90;;;;;;5049994;28;20037;-47
2022/10/08 02:46:27;;;;;;;3.08;1.17;;;21.60;48.60;;;;;;5049108;28;20032;-47
2022/10/08 02:49:04;;;;;;;3.35;1.00;;;21.60;48.00;;;;;;5047959;28;20051;-50
2022/10/08 02:51:35;;;;;;;1.92;0.95;;;21.60;48.10;;;;;;5049687;28;20036;-46
2022/10/08 02:54:03;;;;;;;1.52;0.98;;;21.60;48.10;;;;;;5049953;28;20021;-49
2022/10/08 02:56:45;;;;;;;2.50;0.98;;;21.60;48.20;;;;;;5046482;28;20075;-49
2022/10/08 02:59:13;;;;;;;4.20;1.45;;;21.50;48.20;;;;;;5049071;28;20044;-48
2022/10/08 03:02:10;;;;;;;2.22;1.00;;;21.50;48.20;;;;;;5049358;28;20060;-47
2022/10/08 03:05:00;;;;;;;2.00;0.95;;;21.60;48.30;;;;;;5034174;28;20045;-47
2022/10/08 03:07:29;;;;;;;2.35;1.00;;;21.50;48.40;;;;;;5048038;28;20045;-45
2022/10/08 03:09:57;;;;;;;2.92;0.90;;;21.50;48.40;;;;;;5045166;28;20156;-48
2022/10/08 03:12:24;;;;;;;2.47;1.13;;;21.50;48.40;;;;;;5047218;28;20025;-46
2022/10/08 03:14:51;;;;;;;3.25;1.15;;;21.50;48.50;;;;;;5047918;28;20429;-46
2022/10/08 03:17:29;;;;;;;2.60;1.00;;;21.50;48.50;;;;;;5049643;28;20444;-50
2022/10/08 03:19:56;;;;;;;2.45;0.93;;;21.50;48.60;;;;;;5049257;28;20059;-46
2022/10/08 03:22:23;;;;;;;3.88;1.15;;;21.60;48.70;;;;;;5055547;28;20037;-52
2022/10/08 03:24:49;;;;;;;3.35;1.10;;;21.50;48.70;;;;;;5051459;28;20080;-47
2022/10/08 03:27:14;;;;;;;1.70;0.90;;;21.50;48.70;;;;;;5053752;28;20041;-49
2022/10/08 03:29:40;;;;;;;1.83;0.80;;;21.50;48.70;;;;;;5052456;28;20086;-51
2022/10/08 03:32:07;;;;;;;4.18;1.00;;;21.50;48.80;;;;;;5054114;28;20363;-51
2022/10/08 03:34:32;;;;;;;2.00;0.90;;;21.50;48.80;;;;;;5051470;28;20055;-51
2022/10/08 03:36:58;;;;;;;3.78;1.10;;;21.50;48.90;;;;;;5054129;28;20033;-53
2022/10/08 03:39:24;;;;;;;3.88;0.98;;;21.50;48.90;;;;;;5055317;28;20406;-50
2022/10/08 03:41:50;;;;;;;2.38;1.00;;;21.50;48.90;;;;;;5053373;28;20412;-45
2022/10/08 03:44:15;;;;;;;2.97;0.95;;;21.50;48.90;;;;;;5052543;28;20033;-45
2022/10/08 03:46:41;;;;;;;2.88;1.15;;;21.50;48.90;;;;;;5051595;28;20024;-45
2022/10/08 03:49:07;;;;;;;2.67;0.88;;;21.50;48.90;;;;;;5054921;28;20341;-51
2022/10/08 03:51:33;;;;;;;3.60;1.10;;;21.50;49.00;;;;;;5054327;28;20029;-47
2022/10/08 03:53:59;;;;;;;3.05;0.90;;;21.50;49.00;;;;;;5052348;28;20029;-46
2022/10/08 03:56:25;;;;;;;2.80;0.82;;;21.50;49.00;;;;;;5051314;28;20071;-48
2022/10/08 03:58:58;;;;;;;2.88;0.93;;;21.50;49.00;;;;;;5053403;28;20078;-54
2022/10/08 04:01:26;;;;;;;2.80;0.80;;;21.50;49.00;;;;;;5051524;28;20025;-48
2022/10/08 04:03:53;;;;;;;3.38;1.00;;;21.50;49.00;;;;;;5053033;28;20025;-49
2022/10/08 04:06:19;;;;;;;2.20;0.98;;;21.50;49.00;;;;;;5051390;28;20037;-48
2022/10/08 04:08:45;;;;;;;1.73;0.90;;;21.50;49.00;;;;;;5051564;28;20048;-46
2022/10/08 04:11:13;;;;;;;2.15;0.80;;;21.50;49.10;;;;;;5051620;28;20033;-47
2022/10/08 04:13:39;;;;;;;2.10;0.80;;;21.50;49.10;;;;;;5050136;28;20407;-47
2022/10/08 04:16:13;;;;;;;2.53;0.70;;;21.50;49.10;;;;;;5050174;28;20025;-50
2022/10/08 04:18:40;;;;;;;2.30;1.13;;;21.50;49.20;;;;;;5050545;28;20053;-47
2022/10/08 04:21:09;;;;;;;2.08;1.20;;;21.50;49.10;;;;;;5047682;28;20143;-49
2022/10/08 04:23:37;;;;;;;2.85;1.00;;;21.50;49.10;;;;;;5051171;28;20348;-49
2022/10/08 04:26:03;;;;;;;2.58;1.00;;;21.50;49.10;;;;;;5050712;28;20029;-50
2022/10/08 04:28:29;;;;;;;2.08;0.70;;;21.40;49.10;;;;;;5053260;28;20047;-48
2022/10/08 04:31:00;;;;;;;2.80;1.00;;;21.50;49.20;;;;;;5050603;28;20147;-47
2022/10/08 04:33:28;;;;;;;2.97;0.93;;;21.50;49.20;;;;;;5049479;28;20052;-49
2022/10/08 04:35:54;;;;;;;4.05;0.90;;;21.50;49.20;;;;;;5052408;28;20108;-49
2022/10/08 04:38:20;;;;;;;2.55;1.13;;;21.50;49.20;;;;;;5055658;28;20044;-47
2022/10/08 04:40:46;;;;;;;2.40;0.90;;;21.40;49.20;;;;;;5051453;28;20047;-47
2022/10/08 04:43:13;;;;;;;2.42;1.10;;;21.40;49.20;;;;;;5050752;28;20437;-48
2022/10/08 04:45:45;;;;;;;2.95;0.80;;;21.40;49.20;;;;;;5049093;28;20029;-49
2022/10/08 04:48:12;;;;;;;2.67;0.98;;;21.40;49.20;;;;;;5051757;28;20041;-48
2022/10/08 04:50:38;;;;;;;1.75;0.88;;;21.40;49.20;;;;;;5052075;28;20032;-48
2022/10/08 04:53:05;;;;;;;4.13;1.00;;;21.50;49.30;;;;;;5051966;28;20083;-49
2022/10/08 04:55:32;;;;;;;1.75;0.73;;;21.40;49.90;;;;;;5053527;28;20086;-48
2022/10/08 04:57:57;;;;;;;1.58;0.82;;;21.40;49.30;;;;;;5052552;28;20444;-48
2022/10/08 05:00:23;;;;;;;2.25;1.05;;;21.40;49.30;;;;;;5049570;28;20036;-54
2022/10/08 05:02:49;;;;;;;2.45;1.00;;;21.40;49.40;;;;;;5047878;28;20111;-45
2022/10/08 05:05:15;;;;;;;2.15;0.98;;;21.40;49.40;;;;;;5051142;28;20127;-46
2022/10/08 05:07:41;;;;;;;1.58;0.60;;;21.40;49.40;;;;;;5051131;28;20086;-50
2022/10/08 05:10:07;;;;;;;2.80;0.90;;;21.40;49.40;;;;;;5050213;28;20192;-46
2022/10/08 05:12:33;;;;;;;1.88;1.00;;;21.40;49.40;;;;;;5050184;28;20035;-49
2022/10/08 05:14:59;;;;;;;1.95;1.00;;;21.40;49.40;;;;;;5050849;28;20364;-50
2022/10/08 05:17:25;;;;;;;2.33;1.00;;;21.40;49.40;;;;;;5049271;28;20049;-47
2022/10/08 05:19:51;;;;;;;11.30;1.23;;;21.40;49.50;;;;;;5054290;28;20123;-47
2022/10/08 05:22:17;;;;;;;1.45;0.80;;;21.40;49.50;;;;;;5049819;28;20037;-46
2022/10/08 05:24:43;;;;;;;1.90;0.90;;;21.40;49.50;;;;;;5051712;28;20029;-46
2022/10/08 05:27:09;;;;;;;2.35;0.90;;;21.40;49.50;;;;;;5051325;28;20360;-47
2022/10/08 05:29:35;;;;;;;1.58;0.80;;;21.40;49.50;;;;;;5045148;28;20108;-45
2022/10/08 05:32:01;;;;;;;1.77;0.98;;;21.40;49.50;;;;;;5049881;28;20487;-50
2022/10/08 05:34:27;;;;;;;2.25;1.00;;;21.40;49.50;;;;;;5050038;28;20029;-52
2022/10/08 05:36:53;;;;;;;1.90;0.85;;;21.40;49.50;;;;;;5050641;28;20021;-52
2022/10/08 05:39:18;;;;;;;1.55;0.70;;;21.40;49.50;;;;;;5053558;28;20025;-54
2022/10/08 05:41:44;;;;;;;2.90;1.00;;;21.40;49.60;;;;;;5050863;28;20032;-52
2022/10/08 05:44:10;;;;;;;2.42;1.00;;;21.40;49.60;;;;;;5045365;28;20036;-54
2022/10/08 05:46:37;;;;;;;3.70;0.93;;;21.40;49.60;;;;;;5051005;28;20122;-47
2022/10/08 05:49:05;;;;;;;2.92;0.80;;;21.40;49.50;;;;;;5048183;28;20040;-48
2022/10/08 05:51:31;;;;;;;2.22;0.73;;;21.40;49.50;;;;;;5047878;28;20437;-46
2022/10/08 05:53:59;;;;;;;2.33;1.00;;;21.40;49.60;;;;;;5050504;28;20035;-46
2022/10/08 05:56:26;;;;;;;2.28;0.93;;;21.30;49.50;;;;;;5049877;28;20052;-48
2022/10/08 05:58:52;;;;;;;3.08;1.10;;;21.40;49.60;;;;;;5051174;28;20420;-46
2022/10/08 06:01:21;;;;;;;2.13;1.00;;;21.40;49.60;;;;;;5050545;28;20039;-47
2022/10/08 06:03:55;;;;;;;1.77;0.70;;;21.40;49.60;;;;;;5048766;28;20426;-45
2022/10/08 06:06:22;;;;;;;2.22;0.98;;;21.30;49.60;;;;;;5049362;28;20124;-44
2022/10/08 06:08:52;;;;;;;3.30;0.98;;;21.30;49.60;;;;;;5046023;28;20468;-47
2022/10/08 06:11:19;;;;;;;2.80;1.00;;;21.40;49.70;;;;;;5048792;28;20103;-45
2022/10/08 06:13:45;;;;;;;2.90;0.82;;;21.30;49.70;;;;;;5048157;28;20033;-49
2022/10/08 06:16:11;;;;;;;4.65;1.00;;;21.30;49.70;;;;;;5049907;28;20040;-46
2022/10/08 06:18:40;;;;;;;2.67;0.77;;;21.30;49.70;;;;;;5051508;28;20033;-45
2022/10/08 06:21:12;;;;;;;2.08;0.70;;;21.30;49.70;;;;;;5051410;28;20420;-44
2022/10/08 06:23:39;;;;;;;2.20;0.85;;;21.30;49.70;;;;;;5049685;28;20095;-45
2022/10/08 06:26:08;;;;;;;3.00;1.02;;;21.40;49.80;;;;;;5050714;28;20357;-44
2022/10/08 06:28:37;;;;;;;4.13;1.08;;;21.30;49.80;;;;;;5049949;28;20041;-46
2022/10/08 06:31:04;;;;;;;2.40;1.00;;;21.30;49.80;;;;;;5050033;28;21661;-47
2022/10/08 06:33:30;;;;;;;3.90;0.88;;;21.30;49.80;;;;;;5049779;28;20029;-44
2022/10/08 06:36:01;;;;;;;2.25;0.85;;;21.30;49.90;;;;;;5051237;28;20162;-46
2022/10/08 06:38:26;;;;;;;3.55;0.90;;;21.30;49.90;;;;;;5049578;28;20495;-47
2022/10/08 06:40:55;;;;;;;2.33;0.70;;;21.30;49.90;;;;;;5051160;28;20025;-50
2022/10/08 06:43:21;;;;;;;3.92;0.90;;;21.30;50.00;;;;;;5046637;28;20033;-46
2022/10/08 06:45:47;;;;;;;1.75;0.73;;;21.30;49.90;;;;;;5046083;28;20348;-46
2022/10/08 06:48:13;;;;;;;3.33;1.00;;;21.30;49.90;;;;;;5049164;28;20040;-46
2022/10/08 06:50:39;;;;;;;3.55;0.70;;;21.30;49.90;;;;;;5048986;28;20025;-46
2022/10/08 06:53:06;;;;;;;2.15;0.63;;;21.40;50.00;;;;;;5049356;28;20384;-46
2022/10/08 06:55:32;;;;;;;2.42;0.93;;;21.30;50.00;;;;;;5049684;28;20048;-48
2022/10/08 06:57:59;;;;;;;2.47;0.88;;;21.30;49.90;;;;;;5048963;28;20029;-45
2022/10/08 07:00:25;;;;;;;4.28;1.00;;;21.30;50.00;;;;;;5047887;28;21642;-47
2022/10/08 07:02:51;;;;;;;1.85;0.70;;;21.30;50.00;;;;;;5046345;28;20538;-46
2022/10/08 07:05:17;;;;;;;1.85;0.80;;;21.30;50.00;;;;;;5049860;28;20112;-47
2022/10/08 07:07:43;;;;;;;2.28;0.90;;;21.30;50.00;;;;;;5049987;28;20127;-47
2022/10/08 07:10:10;;;;;;;3.45;0.90;;;21.40;50.10;;;;;;5048704;28;20057;-49
2022/10/08 07:12:36;;;;;;;2.60;0.88;;;21.30;50.20;;;;;;5050056;28;20061;-48
2022/10/08 07:15:03;;;;;;;2.67;1.00;;;21.30;50.20;;;;;;5049681;28;20060;-47
2022/10/08 07:17:29;;;;;;;1.83;0.85;;;21.40;50.20;;;;;;5049343;28;20029;-49
2022/10/08 07:19:56;;;;;;;1.90;0.88;;;21.30;50.40;;;;;;5049074;28;20460;-49
2022/10/08 07:22:22;;;;;;;2.92;1.08;;;21.40;50.30;;;;;;5049022;28;20035;-50
2022/10/08 07:24:49;;;;;;;2.30;1.30;;;21.40;50.30;;;;;;5048505;28;20021;-46
2022/10/08 07:27:16;;;;;;;2.72;1.20;;;21.40;50.30;;;;;;5048995;28;20036;-47
2022/10/08 07:29:42;;;;;;;3.65;0.88;;;21.40;50.30;;;;;;5054194;28;20025;-47
2022/10/08 07:32:08;;;;;;;2.03;0.88;;;21.40;50.30;;;;;;5054423;28;20353;-50
2022/10/08 07:34:34;;;;;;;1.42;0.80;;;21.40;50.30;;;;;;5054828;28;20043;-49
2022/10/08 07:36:59;;;;;;;1.15;0.70;;;21.40;50.30;;;;;;5052995;28;20505;-50
2022/10/08 07:39:26;;;;;;;2.42;1.10;;;21.40;50.30;;;;;;5054742;28;20036;-51
2022/10/08 07:41:52;;;;;;;2.63;0.80;;;21.40;50.60;;;;;;5054416;28;20105;-53
2022/10/08 07:44:18;;;;;;;2.10;0.80;;;21.40;50.30;;;;;;5048183;28;20033;-50
2022/10/08 07:46:47;;;;;;;3.45;1.08;;;21.40;50.50;;;;;;5046469;28;20021;-47
2022/10/08 07:49:15;;;;;;;3.90;1.27;;;21.40;50.80;;;;;;5049283;28;20432;-51
2022/10/08 07:51:41;;;;;;;2.45;0.98;;;21.50;50.90;;;;;;5049174;28;20041;-50
2022/10/08 07:54:10;;;;;;;4.03;1.20;;;21.50;50.90;;;;;;5049385;28;20024;-49
2022/10/08 07:56:36;;;;;;;5.03;1.30;;;21.50;50.70;;;;;;5047375;28;20029;-44
2022/10/08 07:59:03;;;;;;;4.07;1.15;;;21.50;50.60;;;;;;5048738;28;20499;-45
2022/10/08 08:01:31;;;;;;;2.10;0.90;;;21.50;50.50;;;;;;5049215;28;20127;-48
2022/10/08 08:04:00;;;;;;;2.90;1.15;;;21.60;50.40;;;;;;5049481;28;20028;-49
2022/10/08 08:06:27;;;;;;;2.15;0.80;;;21.50;50.30;;;;;;5048843;28;20041;-49
2022/10/08 08:08:53;;;;;;;2.75;0.90;;;21.50;50.20;;;;;;5048206;28;20330;-45
2022/10/08 08:11:22;;;;;;;2.47;0.82;;;21.50;50.10;;;;;;5050582;28;20036;-46
2022/10/08 08:13:48;;;;;;;2.65;1.02;;;21.60;50.10;;;;;;5052373;28;20029;-45
2022/10/08 08:16:17;;;;;;;3.22;1.23;;;21.60;50.00;;;;;;5052203;28;20036;-50
2022/10/08 08:18:46;;;;;;;2.53;0.85;;;21.60;50.00;;;;;;5049949;28;20345;-48
2022/10/08 08:21:14;;;;;;;3.55;0.80;;;21.60;49.90;;;;;;5050598;28;20029;-49
2022/10/08 08:23:43;;;;;;;2.50;0.80;;;21.60;49.90;;;;;;5044284;28;21416;-47
2022/10/08 08:26:12;;;;;;;2.13;0.80;;;21.60;49.80;;;;;;5051266;28;20076;-50
2022/10/08 08:28:38;;;;;;;2.75;0.82;;;21.60;49.70;;;;;;5049279;28;20083;-47
2022/10/08 08:31:23;;;;;;;2.65;1.10;;;21.60;49.50;;;;;;5049457;28;20029;-49
2022/10/08 08:33:52;;;;;;;2.30;0.90;;;21.60;49.30;;;;;;5050197;28;20464;-45
2022/10/08 08:36:19;;;;;;;1.60;0.70;;;21.60;49.20;;;;;;5052175;28;20029;-44
2022/10/08 08:38:45;;;;;;;1.80;0.80;;;21.60;49.20;;;;;;5052259;28;20061;-45
2022/10/08 08:41:49;;;;;;;2.83;0.82;;;21.60;49.00;;;;;;5050259;28;20364;-49
2022/10/08 08:44:33;;;;;;;2.17;0.82;;;21.60;48.90;;;;;;5049426;28;20040;-47
2022/10/08 08:47:10;;;;;;;2.72;0.73;;;21.60;48.90;;;;;;5050075;28;20043;-49
2022/10/08 08:49:46;;;;;;;2.35;0.80;;;21.60;48.80;;;;;;5053532;28;20041;-47
2022/10/08 08:52:15;;;;;;;3.85;0.70;;;21.60;48.80;;;;;;5049105;28;20341;-48
2022/10/08 08:54:44;;;;;;;3.20;0.80;;;21.60;48.80;;;;;;5048088;28;20163;-46
2022/10/08 08:57:28;;;;;;;2.95;0.93;;;21.60;48.80;;;;;;5055132;28;20344;-49
2022/10/08 09:00:00;;;;;;;2.40;0.60;;;21.60;48.60;;;;;;5056767;28;20040;-51
2022/10/08 09:02:31;;;;;;;3.28;0.60;;;21.60;48.40;;;;;;5057371;28;20108;-50
2022/10/08 09:05:01;;;;;;;2.10;0.80;;;21.60;48.30;;;;;;5056957;28;20040;-51
2022/10/08 09:07:41;;;;;;;2.78;0.70;;;21.60;48.20;;;;;;5048818;28;20072;-52
2022/10/08 09:10:15;;;;;;;2.47;0.65;;;21.60;48.10;;;;;;5055309;28;20029;-49
2022/10/08 09:12:42;;;;;;;2.75;0.90;;;21.60;48.00;;;;;;5056674;28;20037;-50
2022/10/08 09:15:32;;;;;;;2.80;1.10;;;21.60;47.80;;;;;;5056884;28;20105;-46
2022/10/08 09:18:01;;;;;;;1.73;0.80;;;21.60;47.70;;;;;;5056481;28;20104;-47
2022/10/08 09:20:28;;;;;;;1.98;0.65;;;21.60;47.60;;;;;;5055894;28;20028;-52
2022/10/08 09:22:54;;;;;;;1.85;0.70;;;21.60;47.50;;;;;;5056434;28;20025;-47
2022/10/08 09:25:23;;;;;;;2.10;0.70;;;21.60;47.40;;;;;;5056422;28;20065;-50
2022/10/08 09:27:52;;;;;;;4.13;0.90;;;21.60;47.30;;;;;;5056509;28;20044;-45
2022/10/08 09:30:40;;;;;;;2.63;0.73;;;21.70;47.20;;;;;;5055601;28;20040;-46
2022/10/08 09:33:12;;;;;;;1.80;0.43;;;21.70;47.30;;;;;;5055341;28;20043;-46
2022/10/08 09:35:43;;;;;;;1.73;0.70;;;21.70;47.00;;;;;;5055753;28;20117;-45
2022/10/08 09:38:36;;;;;;;2.72;0.60;;;21.70;46.80;;;;;;5056342;28;20094;-45
2022/10/08 09:41:17;;;;;;;2.35;0.70;;;21.70;46.60;;;;;;5055043;28;20033;-44
2022/10/08 09:43:44;;;;;;;1.90;0.55;;;21.70;46.70;;;;;;5053702;28;20503;-48
2022/10/08 09:46:28;;;;;;;1.10;0.40;;;21.70;46.60;;;;;;5054320;28;20056;-53
2022/10/08 09:48:54;;;;;;;3.63;0.80;;;21.70;46.50;;;;;;5053932;28;20045;-53
2022/10/08 09:51:20;;;;;;;1.58;0.45;;;21.70;46.40;;;;;;5055030;28;20033;-50
2022/10/08 09:53:53;;;;;;;2.58;0.85;;;21.70;46.30;;;;;;5053350;28;20490;-48
2022/10/08 09:56:26;;;;;;;2.53;0.60;;;21.70;46.60;;;;;;5035774;28;20515;-48
2022/10/08 09:59:04;;;;;;;2.90;0.87;;;21.70;47.00;;;;;;5053679;28;20120;-50
2022/10/08 10:01:30;;;;;;;2.42;0.68;;;21.80;47.40;;;;;;5055536;28;20661;-47
2022/10/08 10:04:01;;;;;;;4.78;0.90;;;21.80;47.70;;;;;;5050455;28;20056;-48
2022/10/08 10:06:29;;;;;;;3.63;0.90;;;21.90;47.70;;;;;;5068029;28;20036;-47
2022/10/08 10:09:10;;;;;;;2.25;0.88;;;21.90;47.40;;;;;;5053266;28;20037;-46
2022/10/08 10:11:48;;;;;;;2.83;0.88;;;21.90;47.20;;;;;;5049646;28;20116;-46
2022/10/08 10:14:20;;;;;;;1.73;0.77;;;21.90;46.90;;;;;;5049138;28;20473;-50
2022/10/08 10:16:54;;;;;;;1.90;0.68;;;21.90;46.70;;;;;;5043460;28;20037;-46
2022/10/08 10:19:28;;;;;;;1.90;0.70;;;21.90;46.60;;;;;;5047045;28;20053;-48
2022/10/08 10:22:01;;;;;;;1.83;0.60;;;22.00;46.40;;;;;;5049309;28;20033;-49
2022/10/08 10:24:44;;;;;;;4.38;0.95;;;22.00;46.30;;;;;;5049520;28;20047;-50
2022/10/08 10:27:32;;;;;;;1.13;0.50;;;21.90;46.10;;;;;;5048282;28;20025;-48
2022/10/08 10:30:03;;;;;;;2.63;0.70;;;21.90;45.90;;;;;;5049534;28;20025;-46
2022/10/08 10:32:35;;;;;;;1.83;0.60;;;21.90;45.70;;;;;;5047947;28;20033;-49
2022/10/08 10:35:12;;;;;;;2.08;0.70;;;22.00;45.70;;;;;;5046317;28;20032;-49
2022/10/08 10:37:47;;;;;;;1.92;0.60;;;21.90;45.60;;;;;;5049937;28;20459;-45
2022/10/08 10:40:25;;;;;;;1.55;0.60;;;22.00;45.50;;;;;;5049835;28;20036;-48
2022/10/08 10:43:14;;;;;;;2.13;0.60;;;22.00;45.70;;;;;;5049911;28;20032;-46
2022/10/08 10:45:45;;;;;;;1.98;0.75;;;22.00;46.10;;;;;;5047363;28;20052;-49
2022/10/08 10:48:13;;;;;;;2.60;0.77;;;22.00;46.40;;;;;;5046465;28;20032;-48
2022/10/08 10:50:46;;;;;;;2.70;0.77;;;22.00;46.60;;;;;;5047192;28;20040;-46
2022/10/08 10:53:25;;;;;;;1.75;0.65;;;22.00;46.70;;;;;;5045258;28;21276;-44
2022/10/08 10:55:56;;;;;;;3.75;1.05;;;22.00;46.60;;;;;;5042749;28;20111;-53
2022/10/08 10:58:29;;;;;;;1.55;0.63;;;22.00;46.80;;;;;;5044380;28;20689;-51
2022/10/08 11:01:31;;;;;;;1.13;0.63;;;22.00;46.70;;;;;;5047974;28;20032;-54
2022/10/08 11:03:57;;;;;;;1.27;0.50;;;22.00;46.70;;;;;;5048711;28;20464;-47
2022/10/08 11:06:35;;;;;;;1.55;0.55;;;22.00;46.70;;;;;;5049242;28;20121;-48
2022/10/08 11:09:19;;;;;;;1.40;0.40;;;22.10;46.70;;;;;;5039729;28;20041;-48
2022/10/08 11:11:58;;;;;;;1.98;0.57;;;22.10;46.70;;;;;;5046586;28;20099;-47
2022/10/08 11:14:49;;;;;;;2.15;0.77;;;22.10;46.80;;;;;;5050964;28;20457;-48
2022/10/08 11:17:46;;;;;;;1.42;0.60;;;22.10;46.80;;;;;;5046682;28;20068;-48
2022/10/08 11:20:25;;;;;;;1.77;0.60;;;22.10;46.80;;;;;;5043980;28;20028;-49
2022/10/08 11:23:26;;;;;;;2.53;0.70;;;22.10;46.80;;;;;;5046474;28;20035;-46
2022/10/08 11:25:52;;;;;;;2.45;0.73;;;22.10;46.80;;;;;;5043378;28;20163;-48
2022/10/08 11:28:52;;;;;;;2.78;0.70;;;22.20;46.90;;;;;;5047987;28;20116;-47
2022/10/08 11:31:32;;;;;;;1.83;0.65;;;22.20;46.70;;;;;;5046167;28;20032;-49
2022/10/08 11:33:58;;;;;;;1.88;0.73;;;22.20;46.60;;;;;;5046571;28;20100;-49
2022/10/08 11:36:46;;;;;;;2.35;0.93;;;22.20;46.50;;;;;;5048264;28;20025;-46
2022/10/08 11:39:35;;;;;;;2.80;0.77;;;22.20;46.40;;;;;;5047987;28;20090;-49
2022/10/08 11:42:15;;;;;;;3.30;0.82;;;22.20;46.30;;;;;;5049551;28;20348;-46
2022/10/08 11:44:41;;;;;;;2.80;0.70;;;22.20;46.20;;;;;;5048617;28;20448;-49
2022/10/08 11:47:46;;;;;;;1.30;0.55;;;22.20;46.20;;;;;;5051555;28;20121;-54
2022/10/08 11:50:29;;;;;;;1.92;0.60;;;22.20;46.00;;;;;;5051175;28;20112;-51
2022/10/08 11:53:13;;;;;;;1.73;0.73;;;22.20;45.90;;;;;;5051263;28;20037;-53
2022/10/08 11:55:51;;;;;;;1.88;0.60;;;22.20;45.80;;;;;;5052973;28;20021;-52
2022/10/08 11:58:22;;;;;;;2.67;0.80;;;22.30;45.80;;;;;;5050627;28;20081;-50
2022/10/08 12:00:59;;;;;;;1.25;0.50;;;22.30;45.70;;;;;;5050159;28;20021;-50
2022/10/08 12:03:35;;;;;;;2.95;0.98;;;22.30;45.90;;;;;;5057291;28;20036;-48
2022/10/08 12:06:31;;;;;;;2.47;0.63;;;22.20;45.90;;;;;;5057686;28;20021;-47
2022/10/08 12:09:06;;;;;;;1.83;0.60;;;22.30;45.80;;;;;;5032894;28;20468;-45
2022/10/08 12:11:34;;;;;;;1.88;0.70;;;22.30;45.80;;;;;;5047574;28;20044;-46
2022/10/08 12:14:12;;;;;;;1.95;0.90;;;22.30;45.70;;;;;;5056557;28;20029;-48
2022/10/08 12:17:04;;;;;;;2.15;0.52;;;22.40;45.60;;;;;;5056963;28;20422;-47
2022/10/08 12:19:33;;;;;;;2.63;0.60;;;22.30;45.40;;;;;;5033753;28;20056;-47
2022/10/08 12:22:15;;;;;;;2.97;0.73;;;22.30;45.30;;;;;;5035826;28;20136;-49
2022/10/08 12:24:45;;;;;;;2.63;0.80;;;22.30;45.20;;;;;;5033314;28;20348;-51
2022/10/08 12:27:17;;;;;;;2.70;0.75;;;22.30;45.00;;;;;;5036465;28;20071;-47
2022/10/08 12:30:15;;;;;;;1.95;0.43;;;22.30;44.80;;;;;;5019470;28;20144;-47
2022/10/08 12:32:41;;;;;;;1.15;0.40;;;22.40;44.80;;;;;;5037239;28;20465;-47
2022/10/08 12:35:39;;;;;;;2.38;0.73;;;22.30;44.50;;;;;;5018221;28;20033;-48
2022/10/08 12:38:14;;;;;;;1.30;0.50;;;22.40;44.40;;;;;;5032128;28;20045;-47
2022/10/08 12:40:44;;;;;;;4.97;0.90;;;22.30;44.20;;;;;;5037233;28;20042;-48
2022/10/08 12:43:19;;;;;;;1.85;0.65;;;22.40;44.10;;;;;;5037637;28;20036;-50
2022/10/08 12:46:05;;;;;;;2.42;0.60;;;22.40;44.00;;;;;;5036630;28;20367;-47
2022/10/08 12:49:08;;;;;;;2.22;0.60;;;22.40;43.80;;;;;;5036160;28;20497;-50
2022/10/08 12:51:42;;;;;;;1.92;0.50;;;22.40;43.70;;;;;;5005997;28;20052;-48
2022/10/08 12:54:24;;;;;;;2.72;0.50;;;22.40;43.60;;;;;;5017425;28;20030;-49
2022/10/08 12:56:51;;;;;;;1.45;0.50;;;22.40;43.50;;;;;;5035367;28;20083;-47
2022/10/08 12:59:18;;;;;;;1.00;0.50;;;22.40;43.70;;;;;;5032655;28;20131;-50
2022/10/08 13:01:46;;;;;;;1.63;0.73;;;22.40;44.20;;;;;;5037419;28;20143;-52
2022/10/08 13:04:22;;;;;;;2.25;0.73;;;22.40;44.10;;;;;;5037642;28;20096;-46
2022/10/08 13:06:51;;;;;;;2.60;0.80;;;22.50;44.40;;;;;;5038725;28;20052;-50
2022/10/08 13:09:32;;;;;;;3.30;0.90;;;22.50;44.60;;;;;;5054153;28;20341;-48
2022/10/08 13:12:04;;;;;;;2.25;0.73;;;22.50;44.60;;;;;;5054066;28;20028;-48
2022/10/08 13:14:33;;;;;;;2.40;0.70;;;22.60;44.70;;;;;;5054137;28;20067;-50